sensor_id;sensor_type;location;lat;lon;timestamp;P1;durP1;ratioP1;P2;durP2;ratioP2
7563;SDS011;3823;53.586;10.040;2023-09-18T04:03:06;7.22;;;6.50;;
7563;SDS011;3823;53.586;10.040;2023-09-18T04:05:32;8.35;;;7.53;;
7563;SDS011;3823;53.586;10.040;2023-09-18T04:07:57;8.13;;;7.50;;
7563;SDS011;3823;53.586;10.040;2023-09-18T04:10:23;8.75;;;7.95;;
7563;SDS011;3823;53.586;10.040;2023-09-18T04:12:51;8.32;;;7.57;;
7563;SDS011;3823;53.586;10.040;2023-09-18T04:15:16;8.30;;;7.53;;
7563;SDS011;3823;53.586;10.040;2023-09-18T04:17:43;7.97;;;7.18;;
7563;SDS011;3823;53.586;10.040;2023-09-18T04:20:10;8.07;;;7.40;;
7563;SDS011;3823;53.586;10.040;2023-09-18T04:22:36;7.72;;;7.03;;
7563;SDS011;3823;53.586;10.040;2023-09-18T04:25:07;7.82;;;7.00;;
7563;SDS011;3823;53.586;10.040;2023-09-18T04:27:33;8.75;;;8.05;;
7563;SDS011;3823;53.586;10.040;2023-09-18T04:29:58;8.50;;;7.75;;
7563;SDS011;3823;53.586;10.040;2023-09-18T04:32:26;8.40;;;7.70;;
7563;SDS011;3823;53.586;10.040;2023-09-18T04:34:52;9.65;;;8.25;;
7563;SDS011;3823;53.586;10.040;2023-09-18T04:37:18;10.40;;;8.07;;
7563;SDS011;3823;53.586;10.040;2023-09-18T04:39:43;8.50;;;7.72;;
7563;SDS011;3823;53.586;10.040;2023-09-18T04:42:09;8.35;;;7.47;;
7563;SDS011;3823;53.586;10.040;2023-09-18T04:44:35;7.72;;;7.10;;
7563;SDS011;3823;53.586;10.040;2023-09-18T04:47:00;8.95;;;7.93;;
7563;SDS011;3823;53.586;10.040;2023-09-18T04:49:26;8.93;;;7.63;;
7563;SDS011;3823;53.586;10.040;2023-09-18T04:51:53;7.75;;;6.95;;
7563;SDS011;3823;53.586;10.040;2023-09-18T04:54:19;9.50;;;8.60;;
7563;SDS011;3823;53.586;10.040;2023-09-18T04:56:44;8.70;;;8.00;;
7563;SDS011;3823;53.586;10.040;2023-09-18T04:59:10;9.90;;;7.70;;
7563;SDS011;3823;53.586;10.040;2023-09-18T05:01:36;10.77;;;8.38;;
7563;SDS011;3823;53.586;10.040;2023-09-18T05:04:01;7.93;;;7.22;;
7563;SDS011;3823;53.586;10.040;2023-09-18T05:06:27;9.18;;;8.38;;
7563;SDS011;3823;53.586;10.040;2023-09-18T05:08:53;9.32;;;8.38;;
7563;SDS011;3823;53.586;10.040;2023-09-18T05:11:19;9.30;;;8.40;;
7563;SDS011;3823;53.586;10.040;2023-09-18T05:13:45;9.75;;;8.75;;
7563;SDS011;3823;53.586;10.040;2023-09-18T05:16:11;8.40;;;7.68;;
7563;SDS011;3823;53.586;10.040;2023-09-18T05:18:36;8.68;;;7.82;;
7563;SDS011;3823;53.586;10.040;2023-09-18T05:21:03;8.88;;;8.07;;
7563;SDS011;3823;53.586;10.040;2023-09-18T05:23:30;9.00;;;8.20;;
7563;SDS011;3823;53.586;10.040;2023-09-18T05:25:55;8.60;;;7.70;;
7563;SDS011;3823;53.586;10.040;2023-09-18T05:28:21;10.32;;;8.13;;
7563;SDS011;3823;53.586;10.040;2023-09-18T05:30:46;8.95;;;8.15;;
7563;SDS011;3823;53.586;10.040;2023-09-18T05:33:12;8.90;;;7.78;;
7563;SDS011;3823;53.586;10.040;2023-09-18T05:35:42;10.27;;;8.30;;
7563;SDS011;3823;53.586;10.040;2023-09-18T05:38:10;9.90;;;8.57;;
7563;SDS011;3823;53.586;10.040;2023-09-18T05:40:38;12.52;;;8.52;;
7563;SDS011;3823;53.586;10.040;2023-09-18T05:43:04;8.18;;;7.47;;
7563;SDS011;3823;53.586;10.040;2023-09-18T05:45:29;8.88;;;8.07;;
7563;SDS011;3823;53.586;10.040;2023-09-18T05:47:56;9.90;;;8.95;;
7563;SDS011;3823;53.586;10.040;2023-09-18T05:50:28;8.52;;;7.82;;
7563;SDS011;3823;53.586;10.040;2023-09-18T05:52:55;9.48;;;7.88;;
7563;SDS011;3823;53.586;10.040;2023-09-18T05:55:24;9.15;;;8.10;;
7563;SDS011;3823;53.586;10.040;2023-09-18T05:57:50;8.50;;;7.72;;
7563;SDS011;3823;53.586;10.040;2023-09-18T06:00:16;9.07;;;8.23;;
7563;SDS011;3823;53.586;10.040;2023-09-18T06:02:42;8.80;;;7.95;;
7563;SDS011;3823;53.586;10.040;2023-09-18T06:05:09;8.95;;;8.15;;
7563;SDS011;3823;53.586;10.040;2023-09-18T06:07:36;8.65;;;7.85;;
7563;SDS011;3823;53.586;10.040;2023-09-18T06:10:02;8.55;;;7.75;;
7563;SDS011;3823;53.586;10.040;2023-09-18T06:12:27;8.75;;;7.95;;
7563;SDS011;3823;53.586;10.040;2023-09-18T06:14:53;8.05;;;7.45;;
7563;SDS011;3823;53.586;10.040;2023-09-18T06:17:18;8.65;;;7.85;;
7563;SDS011;3823;53.586;10.040;2023-09-18T06:19:44;8.20;;;7.40;;
7563;SDS011;3823;53.586;10.040;2023-09-18T06:22:11;8.77;;;7.97;;
7563;SDS011;3823;53.586;10.040;2023-09-18T06:24:37;8.63;;;7.80;;
7563;SDS011;3823;53.586;10.040;2023-09-18T06:27:03;7.75;;;7.05;;
7563;SDS011;3823;53.586;10.040;2023-09-18T06:29:32;8.95;;;7.57;;
7563;SDS011;3823;53.586;10.040;2023-09-18T06:31:57;7.43;;;6.82;;
7563;SDS011;3823;53.586;10.040;2023-09-18T06:34:23;8.07;;;7.28;;
7563;SDS011;3823;53.586;10.040;2023-09-18T06:36:49;8.23;;;7.53;;
7563;SDS011;3823;53.586;10.040;2023-09-18T06:39:15;7.75;;;6.95;;
7563;SDS011;3823;53.586;10.040;2023-09-18T06:41:41;11.98;;;7.68;;
7563;SDS011;3823;53.586;10.040;2023-09-18T06:44:06;7.72;;;7.05;;
7563;SDS011;3823;53.586;10.040;2023-09-18T06:46:32;8.05;;;7.32;;
7563;SDS011;3823;53.586;10.040;2023-09-18T06:48:58;7.97;;;7.13;;
7563;SDS011;3823;53.586;10.040;2023-09-18T06:51:25;12.95;;;7.10;;
7563;SDS011;3823;53.586;10.040;2023-09-18T06:53:51;11.38;;;7.18;;
7563;SDS011;3823;53.586;10.040;2023-09-18T06:56:16;8.48;;;7.60;;
7563;SDS011;3823;53.586;10.040;2023-09-18T06:58:42;9.55;;;8.65;;
7563;SDS011;3823;53.586;10.040;2023-09-18T07:01:07;8.13;;;6.85;;
7563;SDS011;3823;53.586;10.040;2023-09-18T07:03:34;8.32;;;7.47;;
7563;SDS011;3823;53.586;10.040;2023-09-18T07:06:01;7.03;;;6.28;;
7563;SDS011;3823;53.586;10.040;2023-09-18T07:08:27;7.72;;;6.85;;
7563;SDS011;3823;53.586;10.040;2023-09-18T07:10:52;8.38;;;7.68;;
7563;SDS011;3823;53.586;10.040;2023-09-18T07:13:18;8.02;;;7.32;;
7563;SDS011;3823;53.586;10.040;2023-09-18T07:15:43;8.20;;;7.40;;
7563;SDS011;3823;53.586;10.040;2023-09-18T07:18:09;7.00;;;6.50;;
7563;SDS011;3823;53.586;10.040;2023-09-18T07:20:39;7.88;;;7.07;;
7563;SDS011;3823;53.586;10.040;2023-09-18T07:23:05;8.82;;;7.38;;
7563;SDS011;3823;53.586;10.040;2023-09-18T07:25:30;8.43;;;7.57;;
7563;SDS011;3823;53.586;10.040;2023-09-18T07:27:56;7.68;;;7.07;;
7563;SDS011;3823;53.586;10.040;2023-09-18T07:30:22;6.35;;;5.75;;
7563;SDS011;3823;53.586;10.040;2023-09-18T07:32:51;9.93;;;6.55;;
7563;SDS011;3823;53.586;10.040;2023-09-18T07:35:21;12.85;;;6.43;;
7563;SDS011;3823;53.586;10.040;2023-09-18T07:37:47;8.70;;;6.50;;
7563;SDS011;3823;53.586;10.040;2023-09-18T07:40:13;6.63;;;5.80;;
7563;SDS011;3823;53.586;10.040;2023-09-18T07:42:40;7.47;;;6.75;;
7563;SDS011;3823;53.586;10.040;2023-09-18T07:45:06;6.97;;;6.28;;
7563;SDS011;3823;53.586;10.040;2023-09-18T07:47:32;6.10;;;5.50;;
7563;SDS011;3823;53.586;10.040;2023-09-18T07:49:57;6.32;;;5.82;;
7563;SDS011;3823;53.586;10.040;2023-09-18T07:52:23;10.68;;;6.22;;
7563;SDS011;3823;53.586;10.040;2023-09-18T07:54:48;6.72;;;5.95;;
7563;SDS011;3823;53.586;10.040;2023-09-18T07:57:15;7.85;;;6.35;;
7563;SDS011;3823;53.586;10.040;2023-09-18T07:59:41;10.48;;;6.80;;
7563;SDS011;3823;53.586;10.040;2023-09-18T08:02:07;7.03;;;6.40;;
7563;SDS011;3823;53.586;10.040;2023-09-18T08:04:34;6.63;;;6.13;;
7563;SDS011;3823;53.586;10.040;2023-09-18T08:07:00;7.93;;;6.25;;
7563;SDS011;3823;53.586;10.040;2023-09-18T08:09:26;6.60;;;5.80;;
7563;SDS011;3823;53.586;10.040;2023-09-18T08:11:54;7.40;;;6.70;;
7563;SDS011;3823;53.586;10.040;2023-09-18T08:14:20;6.03;;;5.53;;
7563;SDS011;3823;53.586;10.040;2023-09-18T08:16:47;6.57;;;6.07;;
7563;SDS011;3823;53.586;10.040;2023-09-18T08:19:15;10.18;;;6.18;;
7563;SDS011;3823;53.586;10.040;2023-09-18T08:21:42;6.88;;;6.25;;
7563;SDS011;3823;53.586;10.040;2023-09-18T08:24:07;6.55;;;6.05;;
7563;SDS011;3823;53.586;10.040;2023-09-18T08:26:33;6.50;;;5.90;;
7563;SDS011;3823;53.586;10.040;2023-09-18T08:28:59;7.45;;;6.25;;
7563;SDS011;3823;53.586;10.040;2023-09-18T08:31:24;7.25;;;6.63;;
7563;SDS011;3823;53.586;10.040;2023-09-18T08:33:50;7.88;;;5.65;;
7563;SDS011;3823;53.586;10.040;2023-09-18T08:36:16;7.00;;;6.25;;
7563;SDS011;3823;53.586;10.040;2023-09-18T08:38:42;7.60;;;6.78;;
7563;SDS011;3823;53.586;10.040;2023-09-18T08:41:08;7.15;;;6.55;;
7563;SDS011;3823;53.586;10.040;2023-09-18T08:43:36;8.48;;;6.70;;
7563;SDS011;3823;53.586;10.040;2023-09-18T08:46:04;7.75;;;6.50;;
7563;SDS011;3823;53.586;10.040;2023-09-18T08:48:30;6.30;;;5.80;;
7563;SDS011;3823;53.586;10.040;2023-09-18T08:51:01;7.13;;;6.43;;
7563;SDS011;3823;53.586;10.040;2023-09-18T08:53:30;7.65;;;6.68;;
7563;SDS011;3823;53.586;10.040;2023-09-18T08:55:57;6.68;;;6.07;;
7563;SDS011;3823;53.586;10.040;2023-09-18T08:58:26;6.50;;;6.00;;
7563;SDS011;3823;53.586;10.040;2023-09-18T09:00:53;6.82;;;6.30;;
7563;SDS011;3823;53.586;10.040;2023-09-18T09:03:19;6.97;;;6.28;;
7563;SDS011;3823;53.586;10.040;2023-09-18T09:05:45;6.60;;;5.97;;
7563;SDS011;3823;53.586;10.040;2023-09-18T09:08:10;6.80;;;6.20;;
7563;SDS011;3823;53.586;10.040;2023-09-18T09:10:36;6.72;;;6.22;;
7563;SDS011;3823;53.586;10.040;2023-09-18T09:13:01;7.03;;;6.40;;
7563;SDS011;3823;53.586;10.040;2023-09-18T09:15:48;8.27;;;7.15;;
7563;SDS011;3823;53.586;10.040;2023-09-18T09:18:14;7.45;;;6.75;;
7563;SDS011;3823;53.586;10.040;2023-09-18T09:20:41;7.40;;;6.10;;
7563;SDS011;3823;53.586;10.040;2023-09-18T09:23:17;6.25;;;5.75;;
7563;SDS011;3823;53.586;10.040;2023-09-18T09:25:42;9.00;;;6.20;;
7563;SDS011;3823;53.586;10.040;2023-09-18T09:28:08;7.20;;;6.60;;
7563;SDS011;3823;53.586;10.040;2023-09-18T09:30:34;6.65;;;6.13;;
7563;SDS011;3823;53.586;10.040;2023-09-18T09:33:02;6.60;;;6.00;;
7563;SDS011;3823;53.586;10.040;2023-09-18T09:35:30;6.85;;;5.88;;
7563;SDS011;3823;53.586;10.040;2023-09-18T09:38:00;6.88;;;6.20;;
7563;SDS011;3823;53.586;10.040;2023-09-18T09:40:32;8.20;;;6.10;;
7563;SDS011;3823;53.586;10.040;2023-09-18T09:43:00;6.10;;;5.63;;
7563;SDS011;3823;53.586;10.040;2023-09-18T09:45:28;8.32;;;6.38;;
7563;SDS011;3823;53.586;10.040;2023-09-18T09:47:55;5.90;;;5.40;;
7563;SDS011;3823;53.586;10.040;2023-09-18T09:50:22;7.13;;;5.82;;
7563;SDS011;3823;53.586;10.040;2023-09-18T09:52:50;6.35;;;5.32;;
7563;SDS011;3823;53.586;10.040;2023-09-18T09:55:22;6.95;;;6.45;;
7563;SDS011;3823;53.586;10.040;2023-09-18T09:57:56;6.15;;;5.53;;
7563;SDS011;3823;53.586;10.040;2023-09-18T10:00:26;6.38;;;5.78;;
7563;SDS011;3823;53.586;10.040;2023-09-18T10:02:56;7.10;;;5.70;;
7563;SDS011;3823;53.586;10.040;2023-09-18T10:05:30;6.05;;;5.57;;
7563;SDS011;3823;53.586;10.040;2023-09-18T10:07:58;11.75;;;5.45;;
7563;SDS011;3823;53.586;10.040;2023-09-18T10:10:26;6.50;;;5.90;;
7563;SDS011;3823;53.586;10.040;2023-09-18T10:12:57;6.95;;;5.00;;
7563;SDS011;3823;53.586;10.040;2023-09-18T10:15:29;7.65;;;5.20;;
7563;SDS011;3823;53.586;10.040;2023-09-18T10:18:03;5.95;;;5.40;;
7563;SDS011;3823;53.586;10.040;2023-09-18T10:20:30;6.00;;;5.47;;
7563;SDS011;3823;53.586;10.040;2023-09-18T10:22:56;7.50;;;4.97;;
7563;SDS011;3823;53.586;10.040;2023-09-18T10:25:28;7.13;;;5.70;;
7563;SDS011;3823;53.586;10.040;2023-09-18T10:27:56;7.38;;;5.80;;
7563;SDS011;3823;53.586;10.040;2023-09-18T10:30:28;6.00;;;5.47;;
7563;SDS011;3823;53.586;10.040;2023-09-18T10:32:56;7.20;;;5.80;;
7563;SDS011;3823;53.586;10.040;2023-09-18T10:35:24;5.85;;;5.00;;
7563;SDS011;3823;53.586;10.040;2023-09-18T10:37:50;6.60;;;5.47;;
7563;SDS011;3823;53.586;10.040;2023-09-18T10:40:19;11.60;;;5.72;;
7563;SDS011;3823;53.586;10.040;2023-09-18T10:42:46;5.70;;;5.20;;
7563;SDS011;3823;53.586;10.040;2023-09-18T10:45:13;5.45;;;5.05;;
7563;SDS011;3823;53.586;10.040;2023-09-18T10:47:41;7.93;;;5.38;;
7563;SDS011;3823;53.586;10.040;2023-09-18T10:50:13;5.10;;;4.65;;
7563;SDS011;3823;53.586;10.040;2023-09-18T10:52:48;9.25;;;6.22;;
7563;SDS011;3823;53.586;10.040;2023-09-18T10:55:14;7.97;;;5.10;;
7563;SDS011;3823;53.586;10.040;2023-09-18T10:57:52;5.13;;;4.65;;
7563;SDS011;3823;53.586;10.040;2023-09-18T11:00:20;5.47;;;4.22;;
7563;SDS011;3823;53.586;10.040;2023-09-18T11:02:52;7.30;;;4.53;;
7563;SDS011;3823;53.586;10.040;2023-09-18T11:05:34;6.95;;;5.05;;
7563;SDS011;3823;53.586;10.040;2023-09-18T11:10:59;6.55;;;4.75;;
7563;SDS011;3823;53.586;10.040;2023-09-18T11:13:42;7.05;;;4.70;;
7563;SDS011;3823;53.586;10.040;2023-09-18T11:18:51;5.22;;;4.22;;
7563;SDS011;3823;53.586;10.040;2023-09-18T11:21:17;7.28;;;4.90;;
7563;SDS011;3823;53.586;10.040;2023-09-18T11:23:48;6.93;;;4.53;;
7563;SDS011;3823;53.586;10.040;2023-09-18T11:26:32;6.95;;;5.00;;
7563;SDS011;3823;53.586;10.040;2023-09-18T11:29:03;6.32;;;4.40;;
7563;SDS011;3823;53.586;10.040;2023-09-18T11:31:43;10.40;;;4.72;;
7563;SDS011;3823;53.586;10.040;2023-09-18T11:34:26;11.10;;;5.68;;
7563;SDS011;3823;53.586;10.040;2023-09-18T11:37:01;8.35;;;4.80;;
7563;SDS011;3823;53.586;10.040;2023-09-18T11:39:43;5.97;;;4.82;;
7563;SDS011;3823;53.586;10.040;2023-09-18T11:44:42;7.93;;;4.45;;
7563;SDS011;3823;53.586;10.040;2023-09-18T11:47:11;7.25;;;4.80;;
7563;SDS011;3823;53.586;10.040;2023-09-18T11:49:53;6.95;;;3.97;;
7563;SDS011;3823;53.586;10.040;2023-09-18T11:52:30;4.07;;;3.70;;
7563;SDS011;3823;53.586;10.040;2023-09-18T11:54:57;9.32;;;4.32;;
7563;SDS011;3823;53.586;10.040;2023-09-18T11:57:24;4.63;;;3.47;;
7563;SDS011;3823;53.586;10.040;2023-09-18T11:59:50;5.22;;;4.18;;
7563;SDS011;3823;53.586;10.040;2023-09-18T12:02:29;6.78;;;4.53;;
7563;SDS011;3823;53.586;10.040;2023-09-18T12:07:55;6.85;;;3.55;;
7563;SDS011;3823;53.586;10.040;2023-09-18T12:10:21;7.15;;;3.33;;
7563;SDS011;3823;53.586;10.040;2023-09-18T12:12:48;7.82;;;3.67;;
7563;SDS011;3823;53.586;10.040;2023-09-18T12:15:17;4.10;;;3.70;;
7563;SDS011;3823;53.586;10.040;2023-09-18T12:17:44;5.53;;;3.83;;
7563;SDS011;3823;53.586;10.040;2023-09-18T12:20:17;5.75;;;4.07;;
7563;SDS011;3823;53.586;10.040;2023-09-18T12:22:46;6.95;;;3.10;;
7563;SDS011;3823;53.586;10.040;2023-09-18T12:25:14;4.60;;;3.85;;
7563;SDS011;3823;53.586;10.040;2023-09-18T12:27:40;4.40;;;3.85;;
7563;SDS011;3823;53.586;10.040;2023-09-18T12:30:07;3.88;;;2.90;;
7563;SDS011;3823;53.586;10.040;2023-09-18T12:32:37;8.57;;;3.53;;
7563;SDS011;3823;53.586;10.040;2023-09-18T12:35:03;8.60;;;3.60;;
7563;SDS011;3823;53.586;10.040;2023-09-18T12:37:32;5.72;;;3.53;;
7563;SDS011;3823;53.586;10.040;2023-09-18T12:39:59;6.05;;;3.53;;
7563;SDS011;3823;53.586;10.040;2023-09-18T12:42:24;13.13;;;3.92;;
7563;SDS011;3823;53.586;10.040;2023-09-18T12:44:51;6.55;;;4.28;;
7563;SDS011;3823;53.586;10.040;2023-09-18T12:47:17;9.75;;;3.97;;
7563;SDS011;3823;53.586;10.040;2023-09-18T12:49:43;5.82;;;3.78;;
7563;SDS011;3823;53.586;10.040;2023-09-18T12:52:09;4.40;;;3.42;;
7563;SDS011;3823;53.586;10.040;2023-09-18T12:54:45;4.82;;;3.83;;
7563;SDS011;3823;53.586;10.040;2023-09-18T12:57:17;7.60;;;2.97;;
7563;SDS011;3823;53.586;10.040;2023-09-18T12:59:42;6.28;;;3.53;;
7563;SDS011;3823;53.586;10.040;2023-09-18T13:02:08;5.57;;;4.05;;
7563;SDS011;3823;53.586;10.040;2023-09-18T13:04:38;9.57;;;2.90;;
7563;SDS011;3823;53.586;10.040;2023-09-18T13:07:05;4.93;;;3.10;;
7563;SDS011;3823;53.586;10.040;2023-09-18T13:09:32;6.78;;;3.53;;
7563;SDS011;3823;53.586;10.040;2023-09-18T13:11:58;7.50;;;3.47;;
7563;SDS011;3823;53.586;10.040;2023-09-18T13:14:24;6.78;;;3.58;;
7563;SDS011;3823;53.586;10.040;2023-09-18T13:16:50;6.10;;;2.85;;
7563;SDS011;3823;53.586;10.040;2023-09-18T13:19:16;4.25;;;2.72;;
7563;SDS011;3823;53.586;10.040;2023-09-18T13:21:46;6.65;;;3.95;;
7563;SDS011;3823;53.586;10.040;2023-09-18T13:24:27;4.28;;;2.70;;
7563;SDS011;3823;53.586;10.040;2023-09-18T13:26:54;4.90;;;3.05;;
7563;SDS011;3823;53.586;10.040;2023-09-18T13:29:21;3.28;;;2.63;;
7563;SDS011;3823;53.586;10.040;2023-09-18T13:31:48;5.07;;;3.28;;
7563;SDS011;3823;53.586;10.040;2023-09-18T13:34:14;5.22;;;2.47;;
7563;SDS011;3823;53.586;10.040;2023-09-18T13:36:42;4.35;;;3.05;;
7563;SDS011;3823;53.586;10.040;2023-09-18T13:39:09;3.85;;;2.50;;
7563;SDS011;3823;53.586;10.040;2023-09-18T13:41:34;4.38;;;2.42;;
7563;SDS011;3823;53.586;10.040;2023-09-18T13:44:00;4.40;;;2.97;;
7563;SDS011;3823;53.586;10.040;2023-09-18T13:46:25;5.72;;;3.75;;
7563;SDS011;3823;53.586;10.040;2023-09-18T13:48:51;5.20;;;3.20;;
7563;SDS011;3823;53.586;10.040;2023-09-18T13:51:16;3.50;;;2.78;;
7563;SDS011;3823;53.586;10.040;2023-09-18T13:53:42;3.25;;;2.60;;
7563;SDS011;3823;53.586;10.040;2023-09-18T13:56:08;4.03;;;3.60;;
7563;SDS011;3823;53.586;10.040;2023-09-18T13:58:34;6.18;;;3.30;;
7563;SDS011;3823;53.586;10.040;2023-09-18T14:01:00;7.20;;;3.10;;
7563;SDS011;3823;53.586;10.040;2023-09-18T14:03:26;3.53;;;3.00;;
7563;SDS011;3823;53.586;10.040;2023-09-18T14:05:51;7.05;;;3.28;;
7563;SDS011;3823;53.586;10.040;2023-09-18T14:08:17;3.75;;;3.08;;
7563;SDS011;3823;53.586;10.040;2023-09-18T14:10:43;5.13;;;4.43;;
7563;SDS011;3823;53.586;10.040;2023-09-18T14:13:09;6.32;;;4.03;;
7563;SDS011;3823;53.586;10.040;2023-09-18T14:15:34;3.03;;;2.72;;
7563;SDS011;3823;53.586;10.040;2023-09-18T14:18:00;4.85;;;4.28;;
7563;SDS011;3823;53.586;10.040;2023-09-18T14:20:25;9.27;;;3.47;;
7563;SDS011;3823;53.586;10.040;2023-09-18T14:22:51;8.90;;;2.90;;
7563;SDS011;3823;53.586;10.040;2023-09-18T14:25:17;5.80;;;3.22;;
7563;SDS011;3823;53.586;10.040;2023-09-18T14:27:44;3.13;;;2.90;;
7563;SDS011;3823;53.586;10.040;2023-09-18T14:30:10;5.03;;;3.35;;
7563;SDS011;3823;53.586;10.040;2023-09-18T14:32:37;4.63;;;3.10;;
7563;SDS011;3823;53.586;10.040;2023-09-18T14:35:03;4.38;;;2.85;;
7563;SDS011;3823;53.586;10.040;2023-09-18T14:37:33;5.60;;;3.35;;
7563;SDS011;3823;53.586;10.040;2023-09-18T14:39:59;6.82;;;3.42;;
7563;SDS011;3823;53.586;10.040;2023-09-18T14:42:24;4.68;;;3.20;;
7563;SDS011;3823;53.586;10.040;2023-09-18T14:44:50;6.93;;;3.00;;
7563;SDS011;3823;53.586;10.040;2023-09-18T14:47:16;5.95;;;3.50;;
7563;SDS011;3823;53.586;10.040;2023-09-18T14:49:41;5.72;;;3.28;;
7563;SDS011;3823;53.586;10.040;2023-09-18T14:52:11;3.50;;;2.90;;
7563;SDS011;3823;53.586;10.040;2023-09-18T14:54:37;6.25;;;3.08;;
7563;SDS011;3823;53.586;10.040;2023-09-18T14:57:02;10.63;;;3.08;;
7563;SDS011;3823;53.586;10.040;2023-09-18T14:59:28;5.43;;;3.47;;
7563;SDS011;3823;53.586;10.040;2023-09-18T15:01:54;9.07;;;3.15;;
7563;SDS011;3823;53.586;10.040;2023-09-18T15:04:19;3.65;;;3.35;;
7563;SDS011;3823;53.586;10.040;2023-09-18T15:06:47;2.97;;;2.42;;
7563;SDS011;3823;53.586;10.040;2023-09-18T15:09:13;3.85;;;3.33;;
7563;SDS011;3823;53.586;10.040;2023-09-18T15:11:38;3.97;;;2.85;;
7563;SDS011;3823;53.586;10.040;2023-09-18T15:14:04;3.45;;;2.67;;
7563;SDS011;3823;53.586;10.040;2023-09-18T15:16:30;12.35;;;2.85;;
7563;SDS011;3823;53.586;10.040;2023-09-18T15:18:56;3.63;;;2.95;;
7563;SDS011;3823;53.586;10.040;2023-09-18T15:21:25;6.20;;;3.17;;
7563;SDS011;3823;53.586;10.040;2023-09-18T15:23:51;3.85;;;3.13;;
7563;SDS011;3823;53.586;10.040;2023-09-18T15:26:16;6.53;;;5.05;;
7563;SDS011;3823;53.586;10.040;2023-09-18T15:28:42;4.38;;;2.60;;
7563;SDS011;3823;53.586;10.040;2023-09-18T15:31:08;2.72;;;2.30;;
7563;SDS011;3823;53.586;10.040;2023-09-18T15:33:33;3.13;;;2.63;;
7563;SDS011;3823;53.586;10.040;2023-09-18T15:35:59;3.50;;;2.95;;
7563;SDS011;3823;53.586;10.040;2023-09-18T15:38:24;4.25;;;3.15;;
7563;SDS011;3823;53.586;10.040;2023-09-18T15:40:52;7.72;;;2.65;;
7563;SDS011;3823;53.586;10.040;2023-09-18T15:43:17;3.05;;;2.33;;
7563;SDS011;3823;53.586;10.040;2023-09-18T15:45:43;3.92;;;2.85;;
7563;SDS011;3823;53.586;10.040;2023-09-18T15:48:09;6.45;;;2.80;;
7563;SDS011;3823;53.586;10.040;2023-09-18T15:50:34;2.70;;;2.25;;
7563;SDS011;3823;53.586;10.040;2023-09-18T15:53:00;3.28;;;2.30;;
7563;SDS011;3823;53.586;10.040;2023-09-18T15:55:26;3.97;;;2.50;;
7563;SDS011;3823;53.586;10.040;2023-09-18T15:57:51;4.43;;;2.58;;
7563;SDS011;3823;53.586;10.040;2023-09-18T16:00:17;3.70;;;2.33;;
7563;SDS011;3823;53.586;10.040;2023-09-18T16:02:43;3.55;;;2.85;;
7563;SDS011;3823;53.586;10.040;2023-09-18T16:05:09;2.60;;;2.13;;
7563;SDS011;3823;53.586;10.040;2023-09-18T16:07:36;5.55;;;2.60;;
7563;SDS011;3823;53.586;10.040;2023-09-18T16:10:03;2.78;;;2.53;;
7563;SDS011;3823;53.586;10.040;2023-09-18T16:12:32;5.20;;;2.30;;
7563;SDS011;3823;53.586;10.040;2023-09-18T16:14:58;10.85;;;3.00;;
7563;SDS011;3823;53.586;10.040;2023-09-18T16:17:25;5.30;;;3.05;;
7563;SDS011;3823;53.586;10.040;2023-09-18T16:19:51;4.00;;;2.50;;
7563;SDS011;3823;53.586;10.040;2023-09-18T16:22:16;10.05;;;3.00;;
7563;SDS011;3823;53.586;10.040;2023-09-18T16:24:42;6.15;;;2.40;;
7563;SDS011;3823;53.586;10.040;2023-09-18T16:27:08;3.10;;;2.80;;
7563;SDS011;3823;53.586;10.040;2023-09-18T16:29:36;2.83;;;2.28;;
7563;SDS011;3823;53.586;10.040;2023-09-18T16:32:01;5.10;;;3.15;;
7563;SDS011;3823;53.586;10.040;2023-09-18T16:34:27;2.92;;;2.67;;
7563;SDS011;3823;53.586;10.040;2023-09-18T16:36:53;3.50;;;2.38;;
7563;SDS011;3823;53.586;10.040;2023-09-18T16:39:19;2.30;;;2.10;;
7563;SDS011;3823;53.586;10.040;2023-09-18T16:41:47;4.07;;;2.33;;
7563;SDS011;3823;53.586;10.040;2023-09-18T16:44:12;3.72;;;2.20;;
7563;SDS011;3823;53.586;10.040;2023-09-18T16:46:38;2.80;;;2.35;;
7563;SDS011;3823;53.586;10.040;2023-09-18T16:49:04;3.13;;;2.10;;
7563;SDS011;3823;53.586;10.040;2023-09-18T16:51:30;3.38;;;3.03;;
7563;SDS011;3823;53.586;10.040;2023-09-18T16:53:56;3.25;;;2.50;;
7563;SDS011;3823;53.586;10.040;2023-09-18T16:56:23;4.30;;;2.90;;
7563;SDS011;3823;53.586;10.040;2023-09-18T16:58:49;2.95;;;2.40;;
7563;SDS011;3823;53.586;10.040;2023-09-18T17:01:16;4.25;;;2.65;;
7563;SDS011;3823;53.586;10.040;2023-09-18T17:03:41;4.35;;;3.10;;
7563;SDS011;3823;53.586;10.040;2023-09-18T17:06:09;3.20;;;2.90;;
7563;SDS011;3823;53.586;10.040;2023-09-18T17:08:35;7.18;;;2.47;;
7563;SDS011;3823;53.586;10.040;2023-09-18T17:11:00;3.45;;;2.53;;
7563;SDS011;3823;53.586;10.040;2023-09-18T17:13:28;3.47;;;2.60;;
7563;SDS011;3823;53.586;10.040;2023-09-18T17:15:54;8.35;;;2.78;;
7563;SDS011;3823;53.586;10.040;2023-09-18T17:18:20;3.40;;;2.03;;
7563;SDS011;3823;53.586;10.040;2023-09-18T17:20:46;4.35;;;2.78;;
7563;SDS011;3823;53.586;10.040;2023-09-18T17:23:13;2.75;;;2.28;;
7563;SDS011;3823;53.586;10.040;2023-09-18T17:25:39;7.38;;;3.30;;
7563;SDS011;3823;53.586;10.040;2023-09-18T17:28:04;3.65;;;2.92;;
7563;SDS011;3823;53.586;10.040;2023-09-18T17:30:30;7.10;;;3.03;;
7563;SDS011;3823;53.586;10.040;2023-09-18T17:32:56;4.03;;;2.78;;
7563;SDS011;3823;53.586;10.040;2023-09-18T17:35:23;3.42;;;2.90;;
7563;SDS011;3823;53.586;10.040;2023-09-18T17:37:49;5.05;;;2.35;;
7563;SDS011;3823;53.586;10.040;2023-09-18T17:40:15;5.47;;;2.78;;
7563;SDS011;3823;53.586;10.040;2023-09-18T17:42:40;5.72;;;2.95;;
7563;SDS011;3823;53.586;10.040;2023-09-18T17:45:06;3.00;;;2.05;;
7563;SDS011;3823;53.586;10.040;2023-09-18T17:47:32;3.63;;;3.15;;
7563;SDS011;3823;53.586;10.040;2023-09-18T17:49:58;2.47;;;2.10;;
7563;SDS011;3823;53.586;10.040;2023-09-18T17:52:24;2.30;;;2.10;;
7563;SDS011;3823;53.586;10.040;2023-09-18T17:54:52;3.75;;;2.75;;
7563;SDS011;3823;53.586;10.040;2023-09-18T17:57:18;3.05;;;2.42;;
7563;SDS011;3823;53.586;10.040;2023-09-18T17:59:44;3.45;;;2.92;;
7563;SDS011;3823;53.586;10.040;2023-09-18T18:02:10;7.40;;;2.63;;
7563;SDS011;3823;53.586;10.040;2023-09-18T18:04:36;5.38;;;2.90;;
7563;SDS011;3823;53.586;10.040;2023-09-18T18:07:02;2.83;;;1.90;;
7563;SDS011;3823;53.586;10.040;2023-09-18T18:09:28;2.45;;;2.22;;
7563;SDS011;3823;53.586;10.040;2023-09-18T18:11:53;3.10;;;2.50;;
7563;SDS011;3823;53.586;10.040;2023-09-18T18:14:20;3.22;;;2.60;;
7563;SDS011;3823;53.586;10.040;2023-09-18T18:16:45;2.60;;;2.25;;
7563;SDS011;3823;53.586;10.040;2023-09-18T18:19:11;5.18;;;2.30;;
7563;SDS011;3823;53.586;10.040;2023-09-18T18:21:37;3.05;;;1.77;;
7563;SDS011;3823;53.586;10.040;2023-09-18T18:24:03;2.17;;;2.03;;
7563;SDS011;3823;53.586;10.040;2023-09-18T18:26:29;3.63;;;2.15;;
7563;SDS011;3823;53.586;10.040;2023-09-18T18:28:57;2.67;;;2.00;;
7563;SDS011;3823;53.586;10.040;2023-09-18T18:31:25;3.00;;;2.50;;
7563;SDS011;3823;53.586;10.040;2023-09-18T18:33:51;6.00;;;2.08;;
7563;SDS011;3823;53.586;10.040;2023-09-18T18:36:17;6.97;;;1.85;;
7563;SDS011;3823;53.586;10.040;2023-09-18T18:38:44;5.13;;;2.63;;
7563;SDS011;3823;53.586;10.040;2023-09-18T18:41:09;5.07;;;2.58;;
7563;SDS011;3823;53.586;10.040;2023-09-18T18:43:35;3.33;;;2.03;;
7563;SDS011;3823;53.586;10.040;2023-09-18T18:46:01;4.85;;;2.58;;
7563;SDS011;3823;53.586;10.040;2023-09-18T18:48:30;4.18;;;1.85;;
7563;SDS011;3823;53.586;10.040;2023-09-18T18:50:59;3.42;;;1.85;;
7563;SDS011;3823;53.586;10.040;2023-09-18T18:53:29;2.88;;;2.50;;
7563;SDS011;3823;53.586;10.040;2023-09-18T18:55:55;2.33;;;2.03;;
7563;SDS011;3823;53.586;10.040;2023-09-18T18:58:22;5.75;;;2.45;;
7563;SDS011;3823;53.586;10.040;2023-09-18T19:00:48;2.67;;;2.13;;
7563;SDS011;3823;53.586;10.040;2023-09-18T19:03:16;3.78;;;3.15;;
7563;SDS011;3823;53.586;10.040;2023-09-18T19:05:41;5.60;;;2.65;;
7563;SDS011;3823;53.586;10.040;2023-09-18T19:08:10;3.25;;;2.15;;
7563;SDS011;3823;53.586;10.040;2023-09-18T19:10:38;2.95;;;2.30;;
7563;SDS011;3823;53.586;10.040;2023-09-18T19:13:04;3.58;;;2.30;;